sensor_id;sensor_type;location;lat;lon;timestamp;P1;durP1;ratioP1;P2;durP2;ratioP2
53072;SDS011;38955;48.916;2.336;2023-07-31T00:01:50;11.60;;;4.30;;
53072;SDS011;38955;48.916;2.336;2023-07-31T00:03:54;6.88;;;3.35;;
53072;SDS011;38955;48.916;2.336;2023-07-31T00:05:56;11.50;;;3.47;;
53072;SDS011;38955;48.916;2.336;2023-07-31T00:07:58;8.50;;;3.30;;
53072;SDS011;38955;48.916;2.336;2023-07-31T00:10:00;8.00;;;3.38;;
53072;SDS011;38955;48.916;2.336;2023-07-31T00:12:02;9.48;;;3.42;;
53072;SDS011;38955;48.916;2.336;2023-07-31T00:14:05;10.10;;;4.18;;
53072;SDS011;38955;48.916;2.336;2023-07-31T00:16:07;8.52;;;3.50;;
53072;SDS011;38955;48.916;2.336;2023-07-31T00:18:09;8.18;;;3.58;;
53072;SDS011;38955;48.916;2.336;2023-07-31T00:20:13;10.45;;;3.47;;
53072;SDS011;38955;48.916;2.336;2023-07-31T00:22:15;9.02;;;3.40;;
53072;SDS011;38955;48.916;2.336;2023-07-31T00:24:17;7.65;;;3.45;;
53072;SDS011;38955;48.916;2.336;2023-07-31T00:26:19;7.55;;;3.38;;
53072;SDS011;38955;48.916;2.336;2023-07-31T00:28:21;8.10;;;3.50;;
53072;SDS011;38955;48.916;2.336;2023-07-31T00:30:23;6.72;;;3.70;;
53072;SDS011;38955;48.916;2.336;2023-07-31T00:32:26;7.30;;;3.58;;
53072;SDS011;38955;48.916;2.336;2023-07-31T00:34:28;9.02;;;3.28;;
53072;SDS011;38955;48.916;2.336;2023-07-31T00:36:32;10.60;;;3.35;;
53072;SDS011;38955;48.916;2.336;2023-07-31T00:38:34;12.63;;;3.75;;
53072;SDS011;38955;48.916;2.336;2023-07-31T00:40:36;10.10;;;3.38;;
53072;SDS011;38955;48.916;2.336;2023-07-31T00:42:39;10.23;;;3.63;;
53072;SDS011;38955;48.916;2.336;2023-07-31T00:44:41;9.25;;;3.50;;
53072;SDS011;38955;48.916;2.336;2023-07-31T00:46:43;7.32;;;3.10;;
53072;SDS011;38955;48.916;2.336;2023-07-31T00:48:45;8.52;;;3.35;;
53072;SDS011;38955;48.916;2.336;2023-07-31T00:50:47;9.27;;;3.55;;
53072;SDS011;38955;48.916;2.336;2023-07-31T00:52:51;15.60;;;4.65;;
53072;SDS011;38955;48.916;2.336;2023-07-31T00:54:53;8.40;;;3.25;;
53072;SDS011;38955;48.916;2.336;2023-07-31T00:56:55;8.70;;;3.40;;
53072;SDS011;38955;48.916;2.336;2023-07-31T00:58:58;8.73;;;3.30;;
53072;SDS011;38955;48.916;2.336;2023-07-31T01:01:01;8.75;;;3.60;;
53072;SDS011;38955;48.916;2.336;2023-07-31T01:03:03;9.07;;;3.28;;
53072;SDS011;38955;48.916;2.336;2023-07-31T01:05:06;10.25;;;3.70;;
53072;SDS011;38955;48.916;2.336;2023-07-31T01:07:09;5.75;;;3.25;;
53072;SDS011;38955;48.916;2.336;2023-07-31T01:09:19;8.20;;;2.97;;
53072;SDS011;38955;48.916;2.336;2023-07-31T01:11:30;8.07;;;3.40;;
53072;SDS011;38955;48.916;2.336;2023-07-31T01:15:37;11.35;;;3.78;;
53072;SDS011;38955;48.916;2.336;2023-07-31T01:17:40;9.40;;;3.95;;
53072;SDS011;38955;48.916;2.336;2023-07-31T01:19:43;7.78;;;3.20;;
53072;SDS011;38955;48.916;2.336;2023-07-31T01:21:52;5.75;;;3.00;;
53072;SDS011;38955;48.916;2.336;2023-07-31T01:24:26;9.27;;;3.30;;
53072;SDS011;38955;48.916;2.336;2023-07-31T01:26:33;11.18;;;3.63;;
53072;SDS011;38955;48.916;2.336;2023-07-31T01:28:40;8.00;;;3.17;;
53072;SDS011;38955;48.916;2.336;2023-07-31T01:30:48;11.13;;;3.53;;
53072;SDS011;38955;48.916;2.336;2023-07-31T01:32:51;9.07;;;3.20;;
53072;SDS011;38955;48.916;2.336;2023-07-31T01:35:00;7.00;;;3.15;;
53072;SDS011;38955;48.916;2.336;2023-07-31T01:37:08;10.60;;;3.15;;
53072;SDS011;38955;48.916;2.336;2023-07-31T01:39:10;8.48;;;3.60;;
53072;SDS011;38955;48.916;2.336;2023-07-31T01:41:12;5.75;;;2.88;;
53072;SDS011;38955;48.916;2.336;2023-07-31T01:43:16;8.50;;;3.25;;
53072;SDS011;38955;48.916;2.336;2023-07-31T01:45:23;8.40;;;3.28;;
53072;SDS011;38955;48.916;2.336;2023-07-31T01:47:25;6.05;;;2.90;;
53072;SDS011;38955;48.916;2.336;2023-07-31T01:49:27;6.82;;;3.25;;
53072;SDS011;38955;48.916;2.336;2023-07-31T01:51:29;6.10;;;2.75;;
53072;SDS011;38955;48.916;2.336;2023-07-31T01:53:35;8.88;;;3.38;;
53072;SDS011;38955;48.916;2.336;2023-07-31T01:55:37;8.65;;;3.15;;
53072;SDS011;38955;48.916;2.336;2023-07-31T01:57:39;7.80;;;3.30;;
53072;SDS011;38955;48.916;2.336;2023-07-31T01:59:43;7.45;;;3.15;;
53072;SDS011;38955;48.916;2.336;2023-07-31T02:01:50;10.43;;;3.75;;
53072;SDS011;38955;48.916;2.336;2023-07-31T02:03:55;8.93;;;3.08;;
53072;SDS011;38955;48.916;2.336;2023-07-31T02:05:57;5.07;;;2.78;;
53072;SDS011;38955;48.916;2.336;2023-07-31T02:07:59;13.27;;;3.58;;
53072;SDS011;38955;48.916;2.336;2023-07-31T02:10:01;6.70;;;2.67;;
53072;SDS011;38955;48.916;2.336;2023-07-31T02:12:03;6.93;;;2.55;;
53072;SDS011;38955;48.916;2.336;2023-07-31T02:14:06;5.18;;;3.33;;
53072;SDS011;38955;48.916;2.336;2023-07-31T02:16:09;6.70;;;2.72;;
53072;SDS011;38955;48.916;2.336;2023-07-31T02:18:11;7.15;;;2.97;;
53072;SDS011;38955;48.916;2.336;2023-07-31T02:20:13;4.35;;;2.50;;
53072;SDS011;38955;48.916;2.336;2023-07-31T02:22:16;4.90;;;2.25;;
53072;SDS011;38955;48.916;2.336;2023-07-31T02:24:18;6.70;;;2.75;;
53072;SDS011;38955;48.916;2.336;2023-07-31T02:26:19;7.85;;;2.50;;
53072;SDS011;38955;48.916;2.336;2023-07-31T02:28:22;9.13;;;2.72;;
53072;SDS011;38955;48.916;2.336;2023-07-31T02:30:24;7.72;;;2.97;;
53072;SDS011;38955;48.916;2.336;2023-07-31T02:32:27;8.48;;;2.80;;
53072;SDS011;38955;48.916;2.336;2023-07-31T02:34:29;6.20;;;2.63;;
53072;SDS011;38955;48.916;2.336;2023-07-31T02:36:32;6.95;;;2.67;;
53072;SDS011;38955;48.916;2.336;2023-07-31T02:38:34;7.50;;;2.90;;
53072;SDS011;38955;48.916;2.336;2023-07-31T02:40:36;7.53;;;3.30;;
53072;SDS011;38955;48.916;2.336;2023-07-31T02:42:38;4.25;;;2.25;;
53072;SDS011;38955;48.916;2.336;2023-07-31T02:44:40;4.20;;;2.67;;
53072;SDS011;38955;48.916;2.336;2023-07-31T02:46:42;7.38;;;3.20;;
53072;SDS011;38955;48.916;2.336;2023-07-31T02:48:45;5.30;;;2.60;;
53072;SDS011;38955;48.916;2.336;2023-07-31T02:50:47;5.38;;;2.45;;
53072;SDS011;38955;48.916;2.336;2023-07-31T02:52:49;7.05;;;2.60;;
53072;SDS011;38955;48.916;2.336;2023-07-31T02:54:51;6.35;;;2.95;;
53072;SDS011;38955;48.916;2.336;2023-07-31T02:56:54;7.15;;;2.58;;
53072;SDS011;38955;48.916;2.336;2023-07-31T02:58:56;4.88;;;2.47;;
53072;SDS011;38955;48.916;2.336;2023-07-31T03:00:58;7.45;;;2.53;;
53072;SDS011;38955;48.916;2.336;2023-07-31T03:03:00;5.18;;;2.35;;
53072;SDS011;38955;48.916;2.336;2023-07-31T03:05:04;9.85;;;2.85;;
53072;SDS011;38955;48.916;2.336;2023-07-31T03:07:06;6.05;;;2.33;;
53072;SDS011;38955;48.916;2.336;2023-07-31T03:09:08;6.53;;;3.00;;
53072;SDS011;38955;48.916;2.336;2023-07-31T03:11:10;4.85;;;2.22;;
53072;SDS011;38955;48.916;2.336;2023-07-31T03:13:12;7.00;;;2.40;;
53072;SDS011;38955;48.916;2.336;2023-07-31T03:15:15;7.15;;;2.70;;
53072;SDS011;38955;48.916;2.336;2023-07-31T03:17:17;8.73;;;2.70;;
53072;SDS011;38955;48.916;2.336;2023-07-31T03:19:19;5.35;;;2.42;;
53072;SDS011;38955;48.916;2.336;2023-07-31T03:21:22;6.97;;;2.33;;
53072;SDS011;38955;48.916;2.336;2023-07-31T03:23:25;5.60;;;2.30;;
53072;SDS011;38955;48.916;2.336;2023-07-31T03:25:27;5.05;;;2.20;;
53072;SDS011;38955;48.916;2.336;2023-07-31T03:27:29;4.78;;;2.40;;
53072;SDS011;38955;48.916;2.336;2023-07-31T03:29:31;5.72;;;2.42;;
53072;SDS011;38955;48.916;2.336;2023-07-31T03:31:33;4.10;;;2.30;;
53072;SDS011;38955;48.916;2.336;2023-07-31T03:33:35;6.47;;;2.45;;
53072;SDS011;38955;48.916;2.336;2023-07-31T03:35:37;6.57;;;2.92;;
53072;SDS011;38955;48.916;2.336;2023-07-31T03:37:41;4.03;;;2.35;;
53072;SDS011;38955;48.916;2.336;2023-07-31T03:39:43;5.15;;;2.63;;
53072;SDS011;38955;48.916;2.336;2023-07-31T03:41:45;6.68;;;2.45;;
53072;SDS011;38955;48.916;2.336;2023-07-31T03:43:49;4.15;;;2.10;;
53072;SDS011;38955;48.916;2.336;2023-07-31T03:45:57;4.82;;;2.35;;
53072;SDS011;38955;48.916;2.336;2023-07-31T03:47:59;5.85;;;2.20;;
53072;SDS011;38955;48.916;2.336;2023-07-31T03:50:01;4.75;;;2.38;;
53072;SDS011;38955;48.916;2.336;2023-07-31T03:52:04;7.05;;;2.30;;
53072;SDS011;38955;48.916;2.336;2023-07-31T03:54:07;7.97;;;2.28;;
53072;SDS011;38955;48.916;2.336;2023-07-31T03:56:09;7.35;;;2.50;;
53072;SDS011;38955;48.916;2.336;2023-07-31T03:58:11;5.18;;;2.47;;
53072;SDS011;38955;48.916;2.336;2023-07-31T04:00:14;6.18;;;2.50;;
53072;SDS011;38955;48.916;2.336;2023-07-31T04:02:16;5.85;;;2.53;;
53072;SDS011;38955;48.916;2.336;2023-07-31T04:04:20;5.90;;;2.40;;
53072;SDS011;38955;48.916;2.336;2023-07-31T04:06:22;5.90;;;2.53;;
53072;SDS011;38955;48.916;2.336;2023-07-31T04:08:24;6.28;;;2.63;;
53072;SDS011;38955;48.916;2.336;2023-07-31T04:10:27;4.45;;;2.75;;
53072;SDS011;38955;48.916;2.336;2023-07-31T04:12:30;8.02;;;2.80;;
53072;SDS011;38955;48.916;2.336;2023-07-31T04:14:32;7.88;;;2.88;;
53072;SDS011;38955;48.916;2.336;2023-07-31T04:16:34;6.68;;;2.40;;
53072;SDS011;38955;48.916;2.336;2023-07-31T04:18:37;7.63;;;3.00;;
53072;SDS011;38955;48.916;2.336;2023-07-31T04:20:39;8.23;;;3.00;;
53072;SDS011;38955;48.916;2.336;2023-07-31T04:22:42;6.65;;;2.88;;
53072;SDS011;38955;48.916;2.336;2023-07-31T04:24:44;6.85;;;3.30;;
53072;SDS011;38955;48.916;2.336;2023-07-31T04:26:47;5.93;;;3.08;;
53072;SDS011;38955;48.916;2.336;2023-07-31T04:28:49;8.77;;;2.92;;
53072;SDS011;38955;48.916;2.336;2023-07-31T04:30:51;7.00;;;2.95;;
53072;SDS011;38955;48.916;2.336;2023-07-31T04:32:54;9.70;;;3.80;;
53072;SDS011;38955;48.916;2.336;2023-07-31T04:34:56;4.95;;;2.53;;
53072;SDS011;38955;48.916;2.336;2023-07-31T04:36:58;8.00;;;3.35;;
53072;SDS011;38955;48.916;2.336;2023-07-31T04:39:01;6.93;;;3.67;;
53072;SDS011;38955;48.916;2.336;2023-07-31T04:41:03;7.45;;;3.35;;
53072;SDS011;38955;48.916;2.336;2023-07-31T04:43:08;9.05;;;3.10;;
53072;SDS011;38955;48.916;2.336;2023-07-31T04:45:10;8.55;;;3.25;;
53072;SDS011;38955;48.916;2.336;2023-07-31T04:47:12;9.75;;;3.95;;
53072;SDS011;38955;48.916;2.336;2023-07-31T04:49:14;8.75;;;3.60;;
53072;SDS011;38955;48.916;2.336;2023-07-31T04:51:16;10.15;;;3.65;;
53072;SDS011;38955;48.916;2.336;2023-07-31T04:53:18;10.40;;;3.80;;
53072;SDS011;38955;48.916;2.336;2023-07-31T04:55:20;7.00;;;3.30;;
53072;SDS011;38955;48.916;2.336;2023-07-31T04:57:22;8.43;;;3.55;;
53072;SDS011;38955;48.916;2.336;2023-07-31T04:59:26;8.93;;;3.70;;
53072;SDS011;38955;48.916;2.336;2023-07-31T05:01:28;11.35;;;3.50;;
53072;SDS011;38955;48.916;2.336;2023-07-31T05:03:30;8.50;;;3.60;;
53072;SDS011;38955;48.916;2.336;2023-07-31T05:05:32;8.88;;;3.70;;
53072;SDS011;38955;48.916;2.336;2023-07-31T05:07:34;10.43;;;4.10;;
53072;SDS011;38955;48.916;2.336;2023-07-31T05:09:36;11.23;;;4.30;;
53072;SDS011;38955;48.916;2.336;2023-07-31T05:11:40;12.50;;;4.53;;
53072;SDS011;38955;48.916;2.336;2023-07-31T05:13:44;8.90;;;4.07;;
53072;SDS011;38955;48.916;2.336;2023-07-31T05:15:47;8.68;;;4.40;;
53072;SDS011;38955;48.916;2.336;2023-07-31T05:17:51;8.38;;;3.78;;
53072;SDS011;38955;48.916;2.336;2023-07-31T05:19:53;11.00;;;4.40;;
53072;SDS011;38955;48.916;2.336;2023-07-31T05:21:55;12.65;;;4.32;;
53072;SDS011;38955;48.916;2.336;2023-07-31T05:23:57;8.32;;;4.10;;
53072;SDS011;38955;48.916;2.336;2023-07-31T05:26:02;9.65;;;4.22;;
53072;SDS011;38955;48.916;2.336;2023-07-31T05:28:05;10.10;;;3.97;;
53072;SDS011;38955;48.916;2.336;2023-07-31T05:30:07;11.23;;;4.40;;
53072;SDS011;38955;48.916;2.336;2023-07-31T05:32:11;9.50;;;4.10;;
53072;SDS011;38955;48.916;2.336;2023-07-31T05:34:13;10.63;;;4.07;;
53072;SDS011;38955;48.916;2.336;2023-07-31T05:36:15;11.38;;;4.50;;
53072;SDS011;38955;48.916;2.336;2023-07-31T05:38:17;9.82;;;4.53;;
53072;SDS011;38955;48.916;2.336;2023-07-31T05:40:19;10.98;;;4.35;;
53072;SDS011;38955;48.916;2.336;2023-07-31T05:42:21;11.35;;;4.82;;
53072;SDS011;38955;48.916;2.336;2023-07-31T05:44:23;12.57;;;4.75;;
53072;SDS011;38955;48.916;2.336;2023-07-31T05:46:25;11.02;;;4.50;;
53072;SDS011;38955;48.916;2.336;2023-07-31T05:48:29;13.73;;;4.88;;
53072;SDS011;38955;48.916;2.336;2023-07-31T05:50:31;12.80;;;5.28;;
53072;SDS011;38955;48.916;2.336;2023-07-31T05:52:33;13.85;;;5.10;;
53072;SDS011;38955;48.916;2.336;2023-07-31T05:54:35;7.95;;;4.55;;
53072;SDS011;38955;48.916;2.336;2023-07-31T05:56:37;12.30;;;4.55;;
53072;SDS011;38955;48.916;2.336;2023-07-31T05:58:39;14.07;;;5.18;;
53072;SDS011;38955;48.916;2.336;2023-07-31T06:00:41;12.52;;;5.00;;
53072;SDS011;38955;48.916;2.336;2023-07-31T06:02:44;15.60;;;5.40;;
53072;SDS011;38955;48.916;2.336;2023-07-31T06:04:47;12.73;;;5.47;;
53072;SDS011;38955;48.916;2.336;2023-07-31T06:06:49;13.65;;;5.80;;
53072;SDS011;38955;48.916;2.336;2023-07-31T06:08:51;14.88;;;6.05;;
53072;SDS011;38955;48.916;2.336;2023-07-31T06:10:54;13.00;;;5.45;;
53072;SDS011;38955;48.916;2.336;2023-07-31T06:12:56;14.68;;;5.85;;
53072;SDS011;38955;48.916;2.336;2023-07-31T06:14:58;13.77;;;4.85;;
53072;SDS011;38955;48.916;2.336;2023-07-31T06:17:01;11.38;;;5.07;;
53072;SDS011;38955;48.916;2.336;2023-07-31T06:19:03;19.08;;;6.25;;
53072;SDS011;38955;48.916;2.336;2023-07-31T06:21:06;16.92;;;6.22;;
53072;SDS011;38955;48.916;2.336;2023-07-31T06:23:08;17.45;;;5.72;;
53072;SDS011;38955;48.916;2.336;2023-07-31T06:25:11;13.43;;;5.53;;
53072;SDS011;38955;48.916;2.336;2023-07-31T06:27:16;14.80;;;5.50;;
53072;SDS011;38955;48.916;2.336;2023-07-31T06:29:18;14.68;;;6.28;;
53072;SDS011;38955;48.916;2.336;2023-07-31T06:31:20;14.27;;;5.32;;
53072;SDS011;38955;48.916;2.336;2023-07-31T06:33:24;13.43;;;5.43;;
53072;SDS011;38955;48.916;2.336;2023-07-31T06:35:26;18.40;;;5.90;;
53072;SDS011;38955;48.916;2.336;2023-07-31T06:37:30;13.93;;;6.22;;
53072;SDS011;38955;48.916;2.336;2023-07-31T06:39:32;18.45;;;5.40;;
53072;SDS011;38955;48.916;2.336;2023-07-31T06:41:34;15.23;;;5.38;;
53072;SDS011;38955;48.916;2.336;2023-07-31T06:43:36;17.10;;;6.15;;
53072;SDS011;38955;48.916;2.336;2023-07-31T06:45:38;15.27;;;6.25;;
53072;SDS011;38955;48.916;2.336;2023-07-31T06:47:40;17.00;;;5.82;;
53072;SDS011;38955;48.916;2.336;2023-07-31T06:49:42;14.93;;;5.35;;
53072;SDS011;38955;48.916;2.336;2023-07-31T06:51:44;11.77;;;5.80;;
53072;SDS011;38955;48.916;2.336;2023-07-31T06:53:48;14.50;;;5.97;;
53072;SDS011;38955;48.916;2.336;2023-07-31T06:55:50;11.82;;;6.07;;
53072;SDS011;38955;48.916;2.336;2023-07-31T06:57:53;14.50;;;5.85;;
53072;SDS011;38955;48.916;2.336;2023-07-31T06:59:56;13.95;;;5.68;;
53072;SDS011;38955;48.916;2.336;2023-07-31T07:01:58;13.85;;;6.15;;
53072;SDS011;38955;48.916;2.336;2023-07-31T07:04:00;18.10;;;5.97;;
53072;SDS011;38955;48.916;2.336;2023-07-31T07:06:02;18.52;;;6.35;;
53072;SDS011;38955;48.916;2.336;2023-07-31T07:08:04;16.75;;;5.93;;
53072;SDS011;38955;48.916;2.336;2023-07-31T07:10:08;17.73;;;6.20;;
53072;SDS011;38955;48.916;2.336;2023-07-31T07:12:10;18.60;;;5.60;;
53072;SDS011;38955;48.916;2.336;2023-07-31T07:14:12;16.92;;;6.03;;
53072;SDS011;38955;48.916;2.336;2023-07-31T07:16:14;18.05;;;5.75;;
53072;SDS011;38955;48.916;2.336;2023-07-31T07:18:16;16.08;;;6.32;;
53072;SDS011;38955;48.916;2.336;2023-07-31T07:20:19;16.17;;;5.70;;
53072;SDS011;38955;48.916;2.336;2023-07-31T07:22:21;16.58;;;5.78;;
53072;SDS011;38955;48.916;2.336;2023-07-31T07:24:23;17.40;;;6.13;;
53072;SDS011;38955;48.916;2.336;2023-07-31T07:26:27;12.85;;;6.00;;
53072;SDS011;38955;48.916;2.336;2023-07-31T07:28:29;13.98;;;5.57;;
53072;SDS011;38955;48.916;2.336;2023-07-31T07:30:31;13.88;;;6.00;;
53072;SDS011;38955;48.916;2.336;2023-07-31T07:32:33;17.42;;;6.07;;
53072;SDS011;38955;48.916;2.336;2023-07-31T07:34:35;18.90;;;5.53;;
53072;SDS011;38955;48.916;2.336;2023-07-31T07:36:37;15.23;;;5.68;;
53072;SDS011;38955;48.916;2.336;2023-07-31T07:38:39;13.25;;;5.25;;
53072;SDS011;38955;48.916;2.336;2023-07-31T07:40:42;14.35;;;5.90;;
53072;SDS011;38955;48.916;2.336;2023-07-31T07:42:51;12.73;;;5.10;;
53072;SDS011;38955;48.916;2.336;2023-07-31T07:44:53;19.05;;;5.70;;
53072;SDS011;38955;48.916;2.336;2023-07-31T07:46:55;13.80;;;5.80;;
53072;SDS011;38955;48.916;2.336;2023-07-31T07:48:57;13.55;;;5.68;;
53072;SDS011;38955;48.916;2.336;2023-07-31T07:50:59;14.98;;;5.75;;
53072;SDS011;38955;48.916;2.336;2023-07-31T07:53:01;12.52;;;5.70;;
53072;SDS011;38955;48.916;2.336;2023-07-31T07:55:03;18.25;;;5.50;;
53072;SDS011;38955;48.916;2.336;2023-07-31T07:57:06;12.95;;;5.60;;
53072;SDS011;38955;48.916;2.336;2023-07-31T07:59:10;11.82;;;5.35;;
53072;SDS011;38955;48.916;2.336;2023-07-31T08:01:12;12.52;;;5.50;;
53072;SDS011;38955;48.916;2.336;2023-07-31T08:03:14;15.23;;;5.68;;
53072;SDS011;38955;48.916;2.336;2023-07-31T08:05:18;17.83;;;5.90;;
53072;SDS011;38955;48.916;2.336;2023-07-31T08:07:20;15.93;;;5.60;;
53072;SDS011;38955;48.916;2.336;2023-07-31T08:09:22;14.52;;;5.43;;
53072;SDS011;38955;48.916;2.336;2023-07-31T08:11:24;18.50;;;5.57;;
53072;SDS011;38955;48.916;2.336;2023-07-31T08:13:26;10.57;;;4.80;;
53072;SDS011;38955;48.916;2.336;2023-07-31T08:15:30;15.32;;;5.13;;
53072;SDS011;38955;48.916;2.336;2023-07-31T08:17:32;13.88;;;4.97;;
53072;SDS011;38955;48.916;2.336;2023-07-31T08:19:34;17.10;;;5.45;;
53072;SDS011;38955;48.916;2.336;2023-07-31T08:21:41;11.32;;;4.57;;
53072;SDS011;38955;48.916;2.336;2023-07-31T08:23:48;13.10;;;5.25;;
53072;SDS011;38955;48.916;2.336;2023-07-31T08:25:50;13.15;;;5.05;;
53072;SDS011;38955;48.916;2.336;2023-07-31T08:27:52;13.88;;;5.40;;
53072;SDS011;38955;48.916;2.336;2023-07-31T08:29:54;16.90;;;5.32;;
53072;SDS011;38955;48.916;2.336;2023-07-31T08:31:57;13.45;;;4.72;;
53072;SDS011;38955;48.916;2.336;2023-07-31T08:33:59;15.35;;;5.47;;
53072;SDS011;38955;48.916;2.336;2023-07-31T08:36:02;16.02;;;5.13;;
53072;SDS011;38955;48.916;2.336;2023-07-31T08:38:04;16.67;;;5.85;;
53072;SDS011;38955;48.916;2.336;2023-07-31T08:40:07;12.75;;;5.07;;
53072;SDS011;38955;48.916;2.336;2023-07-31T08:42:09;14.73;;;4.97;;
53072;SDS011;38955;48.916;2.336;2023-07-31T08:44:11;9.25;;;4.70;;
53072;SDS011;38955;48.916;2.336;2023-07-31T08:46:15;14.20;;;4.78;;
53072;SDS011;38955;48.916;2.336;2023-07-31T08:48:19;12.10;;;5.40;;
53072;SDS011;38955;48.916;2.336;2023-07-31T08:50:22;11.88;;;4.75;;
53072;SDS011;38955;48.916;2.336;2023-07-31T08:52:24;14.38;;;5.28;;
53072;SDS011;38955;48.916;2.336;2023-07-31T08:54:26;12.13;;;5.05;;
53072;SDS011;38955;48.916;2.336;2023-07-31T08:56:32;13.25;;;4.68;;
53072;SDS011;38955;48.916;2.336;2023-07-31T08:58:35;15.45;;;5.28;;
53072;SDS011;38955;48.916;2.336;2023-07-31T09:00:38;16.77;;;5.57;;
53072;SDS011;38955;48.916;2.336;2023-07-31T09:02:44;14.82;;;4.97;;
53072;SDS011;38955;48.916;2.336;2023-07-31T09:04:51;14.88;;;4.60;;
53072;SDS011;38955;48.916;2.336;2023-07-31T09:06:54;18.85;;;5.35;;
53072;SDS011;38955;48.916;2.336;2023-07-31T09:09:01;10.57;;;4.43;;
53072;SDS011;38955;48.916;2.336;2023-07-31T09:11:03;12.18;;;4.38;;
53072;SDS011;38955;48.916;2.336;2023-07-31T09:13:06;10.77;;;4.47;;
53072;SDS011;38955;48.916;2.336;2023-07-31T09:15:13;15.10;;;4.30;;
53072;SDS011;38955;48.916;2.336;2023-07-31T09:17:36;9.07;;;4.32;;
53072;SDS011;38955;48.916;2.336;2023-07-31T09:19:38;9.82;;;4.47;;
53072;SDS011;38955;48.916;2.336;2023-07-31T09:21:48;12.70;;;4.57;;
53072;SDS011;38955;48.916;2.336;2023-07-31T09:23:50;8.55;;;4.10;;
53072;SDS011;38955;48.916;2.336;2023-07-31T09:25:55;7.75;;;4.00;;
53072;SDS011;38955;48.916;2.336;2023-07-31T09:27:57;13.85;;;4.57;;
53072;SDS011;38955;48.916;2.336;2023-07-31T09:30:00;13.07;;;4.07;;
53072;SDS011;38955;48.916;2.336;2023-07-31T09:32:03;9.50;;;3.78;;
53072;SDS011;38955;48.916;2.336;2023-07-31T09:34:05;9.60;;;4.28;;
53072;SDS011;38955;48.916;2.336;2023-07-31T09:36:07;8.85;;;4.32;;
53072;SDS011;38955;48.916;2.336;2023-07-31T09:38:13;10.98;;;3.90;;
53072;SDS011;38955;48.916;2.336;2023-07-31T09:40:26;10.50;;;4.65;;
53072;SDS011;38955;48.916;2.336;2023-07-31T09:42:29;9.52;;;4.45;;
53072;SDS011;38955;48.916;2.336;2023-07-31T09:44:39;15.80;;;4.82;;
53072;SDS011;38955;48.916;2.336;2023-07-31T09:46:43;11.10;;;4.65;;
53072;SDS011;38955;48.916;2.336;2023-07-31T09:48:45;15.07;;;4.90;;
53072;SDS011;38955;48.916;2.336;2023-07-31T09:50:48;12.68;;;5.15;;
53072;SDS011;38955;48.916;2.336;2023-07-31T09:52:50;9.50;;;4.85;;
53072;SDS011;38955;48.916;2.336;2023-07-31T09:54:54;10.57;;;4.63;;
53072;SDS011;38955;48.916;2.336;2023-07-31T09:56:56;13.45;;;5.03;;
53072;SDS011;38955;48.916;2.336;2023-07-31T09:59:01;15.25;;;4.72;;
53072;SDS011;38955;48.916;2.336;2023-07-31T10:03:10;12.55;;;4.70;;
53072;SDS011;38955;48.916;2.336;2023-07-31T10:05:13;11.57;;;4.93;;
53072;SDS011;38955;48.916;2.336;2023-07-31T10:07:19;15.95;;;4.72;;
53072;SDS011;38955;48.916;2.336;2023-07-31T10:09:24;10.85;;;4.90;;
53072;SDS011;38955;48.916;2.336;2023-07-31T10:11:35;13.13;;;5.47;;
53072;SDS011;38955;48.916;2.336;2023-07-31T10:13:41;11.35;;;5.13;;
53072;SDS011;38955;48.916;2.336;2023-07-31T10:15:44;19.83;;;5.55;;
53072;SDS011;38955;48.916;2.336;2023-07-31T10:17:47;13.23;;;4.93;;
53072;SDS011;38955;48.916;2.336;2023-07-31T10:19:50;10.38;;;4.82;;
53072;SDS011;38955;48.916;2.336;2023-07-31T10:21:52;14.25;;;5.72;;
53072;SDS011;38955;48.916;2.336;2023-07-31T10:23:55;14.02;;;4.85;;
53072;SDS011;38955;48.916;2.336;2023-07-31T10:25:57;13.50;;;4.88;;
53072;SDS011;38955;48.916;2.336;2023-07-31T10:28:03;10.13;;;4.28;;
53072;SDS011;38955;48.916;2.336;2023-07-31T10:30:07;10.15;;;4.82;;
53072;SDS011;38955;48.916;2.336;2023-07-31T10:32:11;12.60;;;5.30;;
53072;SDS011;38955;48.916;2.336;2023-07-31T10:34:14;10.27;;;4.25;;
53072;SDS011;38955;48.916;2.336;2023-07-31T10:36:17;11.95;;;4.88;;
53072;SDS011;38955;48.916;2.336;2023-07-31T10:38:19;10.90;;;5.63;;
53072;SDS011;38955;48.916;2.336;2023-07-31T10:40:25;12.75;;;4.65;;
53072;SDS011;38955;48.916;2.336;2023-07-31T10:42:29;14.07;;;5.00;;
53072;SDS011;38955;48.916;2.336;2023-07-31T10:44:34;7.32;;;4.40;;
53072;SDS011;38955;48.916;2.336;2023-07-31T10:46:36;13.45;;;5.57;;
53072;SDS011;38955;48.916;2.336;2023-07-31T10:48:39;10.95;;;4.75;;
53072;SDS011;38955;48.916;2.336;2023-07-31T10:50:46;9.50;;;4.53;;
53072;SDS011;38955;48.916;2.336;2023-07-31T10:52:51;11.32;;;4.80;;
53072;SDS011;38955;48.916;2.336;2023-07-31T10:57:20;8.80;;;4.47;;
53072;SDS011;38955;48.916;2.336;2023-07-31T10:59:26;12.63;;;4.93;;
53072;SDS011;38955;48.916;2.336;2023-07-31T11:03:56;8.90;;;4.75;;
53072;SDS011;38955;48.916;2.336;2023-07-31T11:06:01;12.15;;;4.82;;
53072;SDS011;38955;48.916;2.336;2023-07-31T11:08:09;12.55;;;5.20;;
53072;SDS011;38955;48.916;2.336;2023-07-31T11:10:15;9.07;;;4.43;;
53072;SDS011;38955;48.916;2.336;2023-07-31T11:12:18;11.07;;;4.57;;
53072;SDS011;38955;48.916;2.336;2023-07-31T11:14:21;10.10;;;4.82;;
53072;SDS011;38955;48.916;2.336;2023-07-31T11:16:24;10.82;;;4.30;;
53072;SDS011;38955;48.916;2.336;2023-07-31T11:18:28;13.15;;;4.97;;
53072;SDS011;38955;48.916;2.336;2023-07-31T11:20:30;15.13;;;5.22;;
53072;SDS011;38955;48.916;2.336;2023-07-31T11:22:32;12.80;;;5.93;;
53072;SDS011;38955;48.916;2.336;2023-07-31T11:24:36;10.00;;;4.95;;
53072;SDS011;38955;48.916;2.336;2023-07-31T11:26:38;13.52;;;4.60;;
53072;SDS011;38955;48.916;2.336;2023-07-31T11:28:40;11.80;;;5.43;;
53072;SDS011;38955;48.916;2.336;2023-07-31T11:30:46;10.75;;;5.20;;
53072;SDS011;38955;48.916;2.336;2023-07-31T11:32:48;12.10;;;5.22;;
53072;SDS011;38955;48.916;2.336;2023-07-31T11:34:53;13.60;;;5.47;;
53072;SDS011;38955;48.916;2.336;2023-07-31T11:36:56;16.75;;;6.38;;
53072;SDS011;38955;48.916;2.336;2023-07-31T11:39:04;11.90;;;5.88;;
53072;SDS011;38955;48.916;2.336;2023-07-31T11:41:06;13.00;;;5.60;;
53072;SDS011;38955;48.916;2.336;2023-07-31T11:43:08;11.77;;;5.25;;
53072;SDS011;38955;48.916;2.336;2023-07-31T11:45:12;10.63;;;4.88;;
53072;SDS011;38955;48.916;2.336;2023-07-31T11:47:14;13.98;;;5.80;;
53072;SDS011;38955;48.916;2.336;2023-07-31T11:49:17;13.30;;;5.63;;
53072;SDS011;38955;48.916;2.336;2023-07-31T11:51:21;15.00;;;5.93;;
53072;SDS011;38955;48.916;2.336;2023-07-31T11:53:25;12.55;;;5.55;;
53072;SDS011;38955;48.916;2.336;2023-07-31T11:55:29;15.95;;;5.93;;
53072;SDS011;38955;48.916;2.336;2023-07-31T11:57:31;15.85;;;6.10;;
53072;SDS011;38955;48.916;2.336;2023-07-31T11:59:34;13.07;;;5.95;;
53072;SDS011;38955;48.916;2.336;2023-07-31T12:01:36;16.30;;;5.72;;
53072;SDS011;38955;48.916;2.336;2023-07-31T12:03:38;14.13;;;5.85;;
53072;SDS011;38955;48.916;2.336;2023-07-31T12:05:42;13.70;;;5.90;;
53072;SDS011;38955;48.916;2.336;2023-07-31T12:07:46;17.58;;;6.07;;
53072;SDS011;38955;48.916;2.336;2023-07-31T12:09:52;13.95;;;5.93;;
53072;SDS011;38955;48.916;2.336;2023-07-31T12:11:55;11.68;;;5.20;;
53072;SDS011;38955;48.916;2.336;2023-07-31T12:13:57;19.20;;;5.32;;
53072;SDS011;38955;48.916;2.336;2023-07-31T12:16:01;17.05;;;5.50;;
53072;SDS011;38955;48.916;2.336;2023-07-31T12:18:05;10.82;;;5.70;;
53072;SDS011;38955;48.916;2.336;2023-07-31T12:20:09;12.57;;;4.97;;
53072;SDS011;38955;48.916;2.336;2023-07-31T12:22:12;14.57;;;5.97;;
53072;SDS011;38955;48.916;2.336;2023-07-31T12:24:16;12.68;;;5.40;;
53072;SDS011;38955;48.916;2.336;2023-07-31T12:26:20;12.68;;;5.55;;